createdAt,value
2022-10-09T00:01:24.236Z,17.20
2022-10-09T00:03:53.261Z,17.20
2022-10-09T00:06:31.723Z,17.20
2022-10-09T00:09:02.595Z,17.20
2022-10-09T00:11:31.749Z,17.10
2022-10-09T00:13:59.647Z,17.10
2022-10-09T00:16:30.140Z,17.10
2022-10-09T00:18:59.741Z,17.00
2022-10-09T00:21:36.905Z,17.00
2022-10-09T00:24:08.684Z,17.00
2022-10-09T00:26:38.296Z,16.90
2022-10-09T00:29:07.889Z,16.90
2022-10-09T00:31:35.334Z,16.90
2022-10-09T00:34:02.636Z,16.90
2022-10-09T00:36:29.915Z,16.80
2022-10-09T00:38:57.398Z,16.80
2022-10-09T00:41:30.640Z,16.80
2022-10-09T00:44:02.307Z,16.70
2022-10-09T00:46:55.691Z,16.70
2022-10-09T00:49:32.191Z,16.70
2022-10-09T00:52:03.225Z,16.70
2022-10-09T00:54:34.097Z,16.60
2022-10-09T00:57:01.805Z,16.60
2022-10-09T00:59:30.079Z,16.50
2022-10-09T01:01:57.512Z,16.50
2022-10-09T01:04:24.879Z,16.40
2022-10-09T01:07:00.892Z,16.40
2022-10-09T01:09:40.019Z,16.40
2022-10-09T01:12:20.038Z,16.30
2022-10-09T01:15:20.767Z,16.30
2022-10-09T01:18:15.258Z,16.20
2022-10-09T01:20:54.759Z,16.20
2022-10-09T01:23:40.163Z,16.20
2022-10-09T01:26:16.376Z,16.10
2022-10-09T01:28:47.569Z,16.10
2022-10-09T01:31:17.774Z,16.10
2022-10-09T01:33:46.691Z,16.00
2022-10-09T01:36:16.369Z,16.00
2022-10-09T01:38:45.303Z,16.00
2022-10-09T01:41:12.713Z,15.90
2022-10-09T01:43:43.479Z,15.90
2022-10-09T01:46:27.265Z,15.90
2022-10-09T01:49:11.382Z,15.90
2022-10-09T01:51:51.893Z,15.80
2022-10-09T01:54:31.696Z,15.70
2022-10-09T01:57:04.009Z,15.70
2022-10-09T01:59:35.885Z,15.70
2022-10-09T02:02:07.685Z,15.70
2022-10-09T02:04:38.758Z,15.60
2022-10-09T02:07:06.379Z,15.60
2022-10-09T02:09:34.708Z,15.60
2022-10-09T02:12:07.990Z,15.60
2022-10-09T02:14:36.527Z,15.50
2022-10-09T02:17:12.158Z,15.50
2022-10-09T02:19:48.257Z,15.50
2022-10-09T02:22:47.112Z,15.50
2022-10-09T02:25:15.593Z,15.40
2022-10-09T02:27:42.976Z,15.40
2022-10-09T02:30:13.701Z,15.40
2022-10-09T02:32:41.104Z,15.40
2022-10-09T02:35:11.349Z,15.40
2022-10-09T02:37:38.597Z,15.30
2022-10-09T02:40:10.865Z,15.30
2022-10-09T02:42:40.605Z,15.30
2022-10-09T02:45:10.883Z,15.30
2022-10-09T02:47:40.279Z,15.20
2022-10-09T02:50:08.324Z,15.20
2022-10-09T02:52:35.654Z,15.20
2022-10-09T02:55:03.033Z,15.20
2022-10-09T02:57:32.776Z,15.20
2022-10-09T03:00:02.759Z,15.10
2022-10-09T03:02:32.390Z,15.10
2022-10-09T03:05:02.084Z,15.10
2022-10-09T03:07:31.530Z,15.10
2022-10-09T03:09:58.888Z,15.00
2022-10-09T03:12:26.269Z,15.00
2022-10-09T03:14:53.517Z,15.00
2022-10-09T03:17:23.104Z,15.00
2022-10-09T03:19:54.972Z,14.90
2022-10-09T03:22:27.162Z,14.90
2022-10-09T03:24:56.891Z,14.90
2022-10-09T03:27:24.153Z,14.90
2022-10-09T03:29:53.911Z,14.90
2022-10-09T03:32:23.623Z,14.90
2022-10-09T03:34:53.224Z,14.90
2022-10-09T03:37:20.470Z,14.90
2022-10-09T03:39:49.993Z,14.80
2022-10-09T03:42:17.313Z,14.80
2022-10-09T03:44:46.949Z,14.80
2022-10-09T03:47:16.666Z,14.80
2022-10-09T03:49:48.875Z,14.70
2022-10-09T03:52:16.135Z,14.80
2022-10-09T03:54:43.489Z,14.80
2022-10-09T03:57:10.821Z,14.70
2022-10-09T03:59:40.234Z,14.70
2022-10-09T04:02:08.350Z,14.70
2022-10-09T04:04:35.633Z,14.70
2022-10-09T04:07:02.924Z,14.60
2022-10-09T04:09:30.197Z,14.70
2022-10-09T04:11:59.979Z,14.60
2022-10-09T04:14:27.237Z,14.60
2022-10-09T04:16:54.685Z,14.60
2022-10-09T04:19:26.835Z,14.60
2022-10-09T04:21:58.653Z,14.60
2022-10-09T04:24:25.804Z,14.60
2022-10-09T04:26:52.962Z,14.60
2022-10-09T04:29:21.440Z,14.60
2022-10-09T04:31:51.185Z,14.60
2022-10-09T04:34:18.638Z,14.60
2022-10-09T04:36:50.913Z,14.50
2022-10-09T04:39:20.546Z,14.50
2022-10-09T04:41:47.823Z,14.50
2022-10-09T04:44:15.165Z,14.50
2022-10-09T04:46:42.453Z,14.50
2022-10-09T04:49:14.078Z,14.40
2022-10-09T04:51:41.378Z,14.50
2022-10-09T04:54:09.630Z,14.50
2022-10-09T04:56:37.148Z,14.50
2022-10-09T04:59:04.772Z,14.50
2022-10-09T05:01:38.030Z,14.40
2022-10-09T05:04:08.141Z,14.40
2022-10-09T05:06:37.673Z,14.40
2022-10-09T05:09:10.057Z,14.40
2022-10-09T05:11:42.313Z,14.40
2022-10-09T05:14:13.428Z,14.40
2022-10-09T05:17:00.899Z,14.30
2022-10-09T05:19:27.983Z,14.30
2022-10-09T05:21:55.583Z,14.30
2022-10-09T05:24:22.835Z,14.30
2022-10-09T05:26:50.185Z,14.20
2022-10-09T05:29:17.558Z,14.20
2022-10-09T05:31:49.608Z,14.20
2022-10-09T05:34:17.352Z,14.20
2022-10-09T05:36:44.629Z,14.20
2022-10-09T05:39:13.194Z,14.20
2022-10-09T05:41:40.562Z,14.20
2022-10-09T05:44:08.890Z,14.10
2022-10-09T05:46:36.264Z,14.10
2022-10-09T05:49:07.940Z,14.10
2022-10-09T05:51:36.662Z,14.00
2022-10-09T05:54:04.730Z,14.10
2022-10-09T05:56:37.091Z,14.10
2022-10-09T05:59:10.205Z,14.00
2022-10-09T06:01:42.708Z,14.00
2022-10-09T06:04:21.101Z,14.00
2022-10-09T06:06:52.337Z,14.00
2022-10-09T06:09:23.262Z,13.90
2022-10-09T06:11:53.887Z,13.90
2022-10-09T06:14:22.275Z,13.90
2022-10-09T06:16:52.670Z,13.90
2022-10-09T06:19:22.990Z,13.90
2022-10-09T06:21:52.488Z,13.90
2022-10-09T06:24:29.753Z,13.80
2022-10-09T06:26:59.922Z,13.90
2022-10-09T06:29:27.420Z,13.90
2022-10-09T06:31:57.065Z,13.90
2022-10-09T06:34:24.963Z,13.90
2022-10-09T06:36:52.258Z,13.90
2022-10-09T06:39:19.629Z,13.90
2022-10-09T06:41:47.001Z,13.90
2022-10-09T06:44:17.165Z,14.00
2022-10-09T06:46:49.205Z,14.00
2022-10-09T06:49:16.499Z,14.00
2022-10-09T06:51:43.786Z,14.10
2022-10-09T06:54:17.492Z,14.10
2022-10-09T06:56:44.987Z,14.20
2022-10-09T06:59:12.454Z,14.20
2022-10-09T07:01:42.064Z,14.30
2022-10-09T07:04:12.050Z,14.40
2022-10-09T07:06:42.218Z,14.50
2022-10-09T07:09:12.459Z,14.50
2022-10-09T07:11:45.201Z,14.60
2022-10-09T07:14:14.244Z,14.70
2022-10-09T07:16:48.714Z,14.80
2022-10-09T07:19:17.843Z,14.90
2022-10-09T07:21:47.573Z,15.00
2022-10-09T07:24:15.315Z,15.00
2022-10-09T07:26:45.281Z,15.00
2022-10-09T07:29:15.049Z,15.10
2022-10-09T07:31:42.506Z,15.20
2022-10-09T07:34:10.144Z,15.30
2022-10-09T07:36:37.589Z,15.40
2022-10-09T07:39:05.623Z,15.40
2022-10-09T07:41:33.117Z,15.50
2022-10-09T07:44:00.469Z,15.60
2022-10-09T07:46:33.298Z,15.60
2022-10-09T07:49:01.773Z,15.70
2022-10-09T07:51:30.228Z,15.80
2022-10-09T07:53:58.244Z,15.90
2022-10-09T07:56:29.192Z,15.90
2022-10-09T07:58:58.956Z,15.90
2022-10-09T08:01:30.751Z,16.00
2022-10-09T08:04:02.607Z,16.00
2022-10-09T08:06:31.007Z,16.10
2022-10-09T08:09:02.155Z,16.20
2022-10-09T08:11:30.174Z,16.20
2022-10-09T08:13:57.843Z,16.30
2022-10-09T08:16:26.946Z,16.40
2022-10-09T08:18:58.925Z,16.40
2022-10-09T08:21:28.359Z,16.50
2022-10-09T08:23:57.546Z,16.60
2022-10-09T08:26:26.264Z,16.70
2022-10-09T08:28:59.249Z,16.80
2022-10-09T08:31:27.727Z,16.90
2022-10-09T08:34:00.153Z,17.00
2022-10-09T08:36:29.243Z,17.10
2022-10-09T08:38:56.585Z,17.20
2022-10-09T08:41:29.676Z,17.20
2022-10-09T08:44:19.974Z,17.30
2022-10-09T08:46:56.703Z,17.30
2022-10-09T08:49:35.389Z,17.40
2022-10-09T08:52:16.947Z,17.40
2022-10-09T08:54:46.728Z,17.50
2022-10-09T08:57:18.321Z,17.50
2022-10-09T08:59:45.675Z,17.60
2022-10-09T09:02:51.113Z,17.60
2022-10-09T09:05:27.725Z,17.70
2022-10-09T09:08:19.964Z,17.80
2022-10-09T09:10:57.684Z,17.90
2022-10-09T09:13:24.993Z,18.00
2022-10-09T09:16:18.604Z,18.10
2022-10-09T09:18:52.653Z,18.10
2022-10-09T09:21:48.464Z,18.20
2022-10-09T09:24:19.505Z,18.20
2022-10-09T09:26:53.598Z,18.30
2022-10-09T09:29:24.633Z,18.30
2022-10-09T09:32:05.130Z,18.40
2022-10-09T09:34:39.072Z,18.40
2022-10-09T09:37:06.412Z,18.50
2022-10-09T09:42:30.344Z,18.60
2022-10-09T09:45:07.021Z,18.60
2022-10-09T09:47:40.471Z,18.70
2022-10-09T09:50:28.437Z,18.80
2022-10-09T09:53:03.206Z,18.90
2022-10-09T09:55:34.617Z,19.10
2022-10-09T09:58:03.750Z,19.50
2022-10-09T10:00:34.074Z,19.80
2022-10-09T10:03:08.786Z,20.30
2022-10-09T10:05:37.879Z,20.80
2022-10-09T10:08:23.175Z,21.30
2022-10-09T10:10:53.590Z,21.80
2022-10-09T10:13:32.841Z,22.10
2022-10-09T10:16:03.175Z,22.50
2022-10-09T10:18:37.626Z,22.70
2022-10-09T10:21:08.828Z,22.90
2022-10-09T10:23:44.186Z,23.00
2022-10-09T10:26:34.659Z,23.10
2022-10-09T10:29:18.071Z,23.10
2022-10-09T10:31:52.470Z,23.10
2022-10-09T10:34:37.849Z,23.10
2022-10-09T10:37:25.369Z,23.20
2022-10-09T10:39:56.944Z,23.30
2022-10-09T10:43:01.281Z,23.40
2022-10-09T10:45:37.387Z,23.40
2022-10-09T10:48:09.339Z,23.40
2022-10-09T10:50:40.762Z,23.40
2022-10-09T10:53:14.114Z,23.40
2022-10-09T10:56:02.647Z,23.40
2022-10-09T10:58:37.397Z,23.40
2022-10-09T11:01:42.412Z,23.40
2022-10-09T11:04:47.494Z,23.40
2022-10-09T11:07:37.274Z,23.30
2022-10-09T11:10:22.554Z,23.30
2022-10-09T11:13:14.167Z,23.20
2022-10-09T11:15:59.998Z,23.10
2022-10-09T11:18:42.625Z,23.00
2022-10-09T11:21:46.771Z,23.00
2022-10-09T11:24:43.281Z,22.90
2022-10-09T11:27:25.458Z,22.80
2022-10-09T11:29:58.674Z,22.70
2022-10-09T11:32:29.109Z,22.70
2022-10-09T11:35:12.740Z,22.70
2022-10-09T11:37:43.521Z,22.70
2022-10-09T11:40:36.522Z,22.80
2022-10-09T11:43:16.250Z,22.90
2022-10-09T11:45:49.586Z,23.10
2022-10-09T11:48:25.827Z,23.20
2022-10-09T11:50:53.089Z,23.50
2022-10-09T11:53:26.782Z,23.70
2022-10-09T11:56:21.888Z,23.90
2022-10-09T11:59:02.341Z,24.30
2022-10-09T12:01:34.998Z,24.60
2022-10-09T12:04:08.691Z,24.80
2022-10-09T12:07:00.681Z,25.10
2022-10-09T12:09:39.993Z,25.40
2022-10-09T12:12:16.326Z,25.60
2022-10-09T12:14:48.469Z,25.80
2022-10-09T12:17:38.486Z,25.90
2022-10-09T12:20:19.107Z,25.90
2022-10-09T12:23:13.843Z,26.10
2022-10-09T12:25:44.267Z,26.20
2022-10-09T12:28:36.408Z,26.40
2022-10-09T12:31:08.908Z,26.70
2022-10-09T12:33:41.793Z,26.90
2022-10-09T12:36:38.694Z,27.20
2022-10-09T12:39:33.987Z,27.50
2022-10-09T12:42:02.169Z,27.80
2022-10-09T12:44:34.034Z,28.10
2022-10-09T12:47:13.914Z,28.30
2022-10-09T12:49:41.343Z,28.60
2022-10-09T12:52:16.395Z,29.00
2022-10-09T12:54:45.040Z,29.20
2022-10-09T12:57:17.787Z,29.60
2022-10-09T12:59:47.063Z,29.80
2022-10-09T13:02:21.127Z,29.70
2022-10-09T13:05:03.412Z,29.40
2022-10-09T13:07:32.645Z,28.80
2022-10-09T13:10:04.006Z,28.20
2022-10-09T13:12:31.734Z,27.60
2022-10-09T13:15:06.899Z,27.10
2022-10-09T13:17:41.819Z,26.50
2022-10-09T13:20:12.355Z,25.90
2022-10-09T13:22:52.823Z,25.40
2022-10-09T13:25:20.390Z,25.00
2022-10-09T13:27:48.117Z,24.60
2022-10-09T13:30:15.719Z,24.20
2022-10-09T13:32:43.112Z,23.90
2022-10-09T13:35:10.554Z,23.70
2022-10-09T13:37:38.107Z,23.40
2022-10-09T13:40:14.779Z,23.20
2022-10-09T13:42:43.034Z,23.00
2022-10-09T13:45:11.024Z,22.70
2022-10-09T13:47:40.837Z,22.50
2022-10-09T13:50:08.539Z,22.40
2022-10-09T13:52:35.961Z,22.30
2022-10-09T13:55:03.420Z,22.20
2022-10-09T13:57:35.345Z,22.10
2022-10-09T14:00:06.194Z,22.00
2022-10-09T14:05:25.713Z,21.80
2022-10-09T14:07:53.308Z,21.90
2022-10-09T14:10:23.869Z,22.00
2022-10-09T14:12:52.108Z,22.00
2022-10-09T14:15:24.569Z,22.10
2022-10-09T14:17:52.154Z,22.10
2022-10-09T14:20:20.063Z,22.00
2022-10-09T14:22:53.001Z,21.90
2022-10-09T14:25:20.414Z,21.80
2022-10-09T14:27:47.780Z,21.80
2022-10-09T14:30:15.120Z,21.60
2022-10-09T14:32:53.173Z,21.60
2022-10-09T14:35:21.608Z,21.50
2022-10-09T14:37:49.347Z,21.40
2022-10-09T14:40:17.129Z,21.30
2022-10-09T14:42:44.579Z,21.30
2022-10-09T14:45:38.570Z,21.20
2022-10-09T14:48:08.875Z,21.10
2022-10-09T14:50:36.664Z,21.10
2022-10-09T14:53:04.251Z,21.10
2022-10-09T14:55:34.067Z,21.00
2022-10-09T14:58:01.741Z,21.00
2022-10-09T15:00:29.182Z,21.00
2022-10-09T15:02:59.028Z,20.90
2022-10-09T15:05:27.440Z,20.90
2022-10-09T15:07:54.861Z,20.80
2022-10-09T15:10:22.390Z,20.80
2022-10-09T15:12:52.371Z,20.70
2022-10-09T15:15:19.940Z,20.70
2022-10-09T15:17:47.815Z,20.70
2022-10-09T15:20:15.505Z,20.60
2022-10-09T15:22:43.037Z,20.60
2022-10-09T15:25:10.621Z,20.60
2022-10-09T15:27:38.543Z,20.60
2022-10-09T15:30:06.616Z,20.50
2022-10-09T15:32:34.205Z,20.50
2022-10-09T15:35:02.295Z,20.50
2022-10-09T15:37:29.737Z,20.50
2022-10-09T15:39:57.172Z,20.40
2022-10-09T15:42:24.653Z,20.40
2022-10-09T15:44:54.822Z,20.40
2022-10-09T15:47:39.225Z,20.40
2022-10-09T15:50:10.300Z,20.30
2022-10-09T15:52:38.026Z,20.30
2022-10-09T15:55:07.204Z,20.20
2022-10-09T15:57:34.742Z,20.20
2022-10-09T16:00:02.152Z,20.20
2022-10-09T16:02:29.747Z,20.10
2022-10-09T16:04:57.152Z,20.10
2022-10-09T16:07:27.228Z,20.10
2022-10-09T16:09:57.496Z,20.00
2022-10-09T16:12:25.128Z,20.00
2022-10-09T16:14:52.841Z,20.00
2022-10-09T16:17:20.268Z,19.90
2022-10-09T16:19:47.860Z,19.90
2022-10-09T16:22:15.301Z,19.90
2022-10-09T16:24:42.654Z,19.80
2022-10-09T16:27:10.227Z,19.80
2022-10-09T16:32:21.513Z,19.70
2022-10-09T16:35:00.753Z,19.70
2022-10-09T16:37:30.720Z,19.60
2022-10-09T16:40:01.497Z,19.60
2022-10-09T16:42:30.658Z,19.60
2022-10-09T16:44:58.791Z,19.50
2022-10-09T16:47:34.865Z,19.50
2022-10-09T16:50:03.913Z,19.50
2022-10-09T16:52:33.948Z,19.50
2022-10-09T16:55:01.359Z,19.50
2022-10-09T16:57:28.861Z,19.50
2022-10-09T16:59:56.304Z,19.50
2022-10-09T17:02:26.145Z,19.40
2022-10-09T17:04:53.696Z,19.40
2022-10-09T17:07:21.280Z,19.40
2022-10-09T17:09:48.876Z,19.30
2022-10-09T17:12:16.847Z,19.30
2022-10-09T17:14:54.654Z,19.20
2022-10-09T17:17:22.043Z,19.30
2022-10-09T17:19:52.434Z,19.30
2022-10-09T17:22:42.690Z,19.30
2022-10-09T17:25:11.710Z,19.20
2022-10-09T17:27:44.813Z,19.20
2022-10-09T17:30:15.762Z,19.10
2022-10-09T17:32:46.650Z,19.10
2022-10-09T17:35:16.213Z,19.10
2022-10-09T17:37:46.312Z,19.10
2022-10-09T17:40:13.870Z,19.10
2022-10-09T17:42:41.367Z,19.10
2022-10-09T17:45:12.984Z,19.00
2022-10-09T17:47:40.417Z,19.00
2022-10-09T17:50:10.640Z,19.00
2022-10-09T17:52:40.164Z,19.00
2022-10-09T17:55:08.665Z,19.00
2022-10-09T17:57:37.352Z,19.00
2022-10-09T18:00:05.303Z,18.90
2022-10-09T18:02:32.840Z,18.90
2022-10-09T18:05:02.682Z,18.90
2022-10-09T18:07:31.077Z,18.90
2022-10-09T18:10:01.768Z,18.90
2022-10-09T18:12:29.584Z,18.90
2022-10-09T18:15:01.287Z,18.90
2022-10-09T18:17:34.322Z,18.90
2022-10-09T18:20:03.906Z,18.80
2022-10-09T18:22:36.485Z,18.80
2022-10-09T18:25:05.172Z,18.80
2022-10-09T18:27:33.078Z,18.80
2022-10-09T18:30:00.416Z,18.80
2022-10-09T18:32:28.050Z,18.80
2022-10-09T18:34:55.443Z,18.70
2022-10-09T18:37:23.884Z,18.70
2022-10-09T18:39:53.355Z,18.70
2022-10-09T18:42:20.663Z,18.70
2022-10-09T18:44:50.908Z,18.70
2022-10-09T18:47:22.555Z,18.60
2022-10-09T18:49:54.242Z,18.60
2022-10-09T18:52:24.988Z,18.60
2022-10-09T18:54:56.458Z,18.60
2022-10-09T18:57:26.532Z,18.60
2022-10-09T18:59:55.552Z,18.60
2022-10-09T19:02:26.537Z,18.60
2022-10-09T19:04:54.781Z,18.50
2022-10-09T19:07:22.577Z,18.50
2022-10-09T19:09:54.892Z,18.50
2022-10-09T19:12:27.105Z,18.50
2022-10-09T19:14:56.856Z,18.50
2022-10-09T19:17:24.403Z,18.40
2022-10-09T19:19:54.218Z,18.40
2022-10-09T19:22:24.025Z,18.40
2022-10-09T19:24:51.559Z,18.40
2022-10-09T19:27:18.939Z,18.30
2022-10-09T19:29:46.531Z,18.30
2022-10-09T19:32:18.215Z,18.30
2022-10-09T19:34:48.107Z,18.30
2022-10-09T19:37:15.705Z,18.20
2022-10-09T19:39:51.910Z,18.20
2022-10-09T19:42:20.145Z,18.20
2022-10-09T19:44:47.941Z,18.20
2022-10-09T19:47:16.346Z,18.20
2022-10-09T19:49:44.059Z,18.10
2022-10-09T19:52:11.493Z,18.10
2022-10-09T19:54:40.455Z,18.10
2022-10-09T19:57:08.236Z,18.10
2022-10-09T19:59:35.933Z,18.10
2022-10-09T20:02:06.651Z,18.00
2022-10-09T20:04:35.401Z,18.00
2022-10-09T20:07:12.954Z,18.00
2022-10-09T20:09:41.122Z,18.00
2022-10-09T20:12:09.962Z,18.00
2022-10-09T20:14:37.860Z,18.00
2022-10-09T20:17:06.978Z,17.90
2022-10-09T20:19:34.614Z,17.90
2022-10-09T20:22:02.400Z,17.90
2022-10-09T20:24:32.654Z,17.90
2022-10-09T20:27:02.717Z,17.90
2022-10-09T20:29:33.712Z,17.80
2022-10-09T20:32:01.574Z,17.80
2022-10-09T20:34:30.930Z,17.90
2022-10-09T20:36:58.611Z,17.80
2022-10-09T20:39:26.093Z,17.80
2022-10-09T20:41:53.576Z,17.80
2022-10-09T20:44:21.078Z,17.70
2022-10-09T20:46:49.528Z,17.80
2022-10-09T20:49:17.066Z,17.70
2022-10-09T20:51:47.359Z,17.70
2022-10-09T20:54:27.212Z,17.70
2022-10-09T20:56:57.732Z,17.70
2022-10-09T20:59:30.516Z,17.70
2022-10-09T21:01:57.993Z,17.70
2022-10-09T21:04:25.670Z,17.70
2022-10-09T21:06:53.293Z,17.70
2022-10-09T21:09:20.837Z,17.70
2022-10-09T21:11:48.432Z,17.60
2022-10-09T21:14:19.641Z,17.60
2022-10-09T21:16:49.442Z,17.60
2022-10-09T21:19:20.698Z,17.60
2022-10-09T21:21:51.246Z,17.60
2022-10-09T21:24:18.999Z,17.60
2022-10-09T21:26:47.579Z,17.60
2022-10-09T21:29:17.911Z,17.50
2022-10-09T21:31:45.491Z,17.50
2022-10-09T21:34:13.215Z,17.50
2022-10-09T21:37:15.957Z,17.50
2022-10-09T21:39:33.837Z,17.50
2022-10-09T21:42:04.047Z,17.50
2022-10-09T21:44:31.415Z,17.40
2022-10-09T21:46:58.789Z,17.40
2022-10-09T21:49:28.473Z,17.40
2022-10-09T21:51:56.370Z,17.30
2022-10-09T21:54:24.038Z,17.30
2022-10-09T21:56:53.923Z,17.30
2022-10-09T21:59:21.586Z,17.30
2022-10-09T22:01:49.094Z,17.30
2022-10-09T22:04:16.634Z,17.30
2022-10-09T22:06:44.057Z,17.30
2022-10-09T22:09:12.239Z,17.20
2022-10-09T22:11:39.748Z,17.20
2022-10-09T22:14:07.754Z,17.20
2022-10-09T22:16:35.353Z,17.20
2022-10-09T22:19:03.199Z,17.20
2022-10-09T22:21:30.678Z,17.20
2022-10-09T22:24:01.078Z,17.20
2022-10-09T22:26:28.727Z,17.20
2022-10-09T22:28:56.153Z,17.20
2022-10-09T22:31:26.338Z,17.20
2022-10-09T22:34:00.442Z,17.20
2022-10-09T22:36:35.129Z,17.20
2022-10-09T22:39:05.313Z,17.20
2022-10-09T22:41:34.390Z,17.20
2022-10-09T22:44:02.942Z,17.20
2022-10-09T22:46:39.665Z,17.20
2022-10-09T22:49:15.803Z,17.20
2022-10-09T22:51:43.770Z,17.20
2022-10-09T22:54:12.621Z,17.20
2022-10-09T22:56:45.026Z,17.20
2022-10-09T22:59:16.270Z,17.20
2022-10-09T23:01:55.754Z,17.10
2022-10-09T23:04:24.411Z,17.10
2022-10-09T23:06:57.260Z,17.10
2022-10-09T23:09:31.487Z,17.10
2022-10-09T23:12:02.442Z,17.10
2022-10-09T23:14:30.093Z,17.10
2022-10-09T23:16:57.651Z,17.10
2022-10-09T23:19:25.225Z,17.10
2022-10-09T23:21:52.713Z,17.10
2022-10-09T23:24:20.235Z,17.10
2022-10-09T23:26:51.086Z,17.10
2022-10-09T23:29:24.013Z,17.10
2022-10-09T23:31:55.765Z,17.10
2022-10-09T23:34:23.317Z,17.10
2022-10-09T23:36:51.960Z,17.10
2022-10-09T23:39:19.382Z,17.10
2022-10-09T23:41:46.804Z,17.10
2022-10-09T23:44:15.962Z,17.10
2022-10-09T23:46:45.171Z,17.10
2022-10-09T23:49:12.746Z,17.00
2022-10-09T23:51:40.187Z,17.00
2022-10-09T23:54:07.748Z,17.00
2022-10-09T23:56:36.527Z,17.00
2022-10-09T23:59:08.562Z,17.00
